Time;durP1;ratioP1;P1;durP2;ratioP2;P2;SDS_P1;SDS_P2;PMS_P1;PMS_P2;Temp;Humidity;BMP_temperature;BMP_pressure;BME280_temperature;BME280_humidity;BME280_pressure;Samples;Min_cycle;Max_cycle;Signal;HPM_P1;HPM_P2
2022/04/22 00:00:39;;;;;;;8.70;7.10;;;;;;;;;;4999788;28;92461;-75
2022/04/22 00:03:06;;;;;;;7.45;6.55;;;;;;;;;;5016540;28;93100;-76
2022/04/22 00:05:33;;;;;;;8.13;7.32;;;;;;;;;;5016696;28;94420;-75
2022/04/22 00:07:59;;;;;;;7.13;6.38;;;;;;;;;;5017088;28;92363;-75
2022/04/22 00:10:26;;;;;;;17.58;7.60;;;;;;;;;;4998862;28;93808;-75
2022/04/22 00:12:52;;;;;;;7.97;7.22;;;;;;;;;;5016578;28;94024;-75
2022/04/22 00:15:20;;;;;;;7.32;6.57;;;;;;;;;;5017663;28;91400;-75
2022/04/22 00:17:47;;;;;;;8.20;7.20;;;;;;;;;;5019624;28;92312;-75
2022/04/22 00:20:13;;;;;;;10.43;6.60;;;;;;;;;;5017127;28;92259;-74
2022/04/22 00:22:40;;;;;;;10.95;7.10;;;;;;;;;;5015459;28;94872;-75
2022/04/22 00:25:08;;;;;;;7.95;7.15;;;;;;;;;;5016604;28;93437;-75
2022/04/22 00:27:34;;;;;;;7.35;6.72;;;;;;;;;;5016882;28;92249;-75
2022/04/22 00:30:01;;;;;;;10.77;7.40;;;;;;;;;;5016619;28;93112;-75
2022/04/22 00:32:27;;;;;;;8.02;6.75;;;;;;;;;;5016356;28;93637;-76
2022/04/22 00:34:54;;;;;;;7.88;7.03;;;;;;;;;;5016794;28;92172;-76
2022/04/22 00:37:20;;;;;;;8.43;6.93;;;;;;;;;;5016887;28;93351;-75
2022/04/22 00:39:46;;;;;;;9.52;7.38;;;;;;;;;;5019869;28;92829;-76
2022/04/22 00:42:13;;;;;;;7.60;7.00;;;;;;;;;;5016480;28;94673;-75
2022/04/22 00:44:39;;;;;;;13.38;7.72;;;;;;;;;;5016068;28;93122;-74
2022/04/22 00:47:06;;;;;;;9.02;7.65;;;;;;;;;;5015126;28;94736;-76
2022/04/22 00:49:32;;;;;;;8.30;7.50;;;;;;;;;;5016605;28;95665;-75
2022/04/22 00:51:58;;;;;;;7.95;7.15;;;;;;;;;;5016303;28;93608;-75
2022/04/22 00:54:25;;;;;;;8.63;7.25;;;;;;;;;;5016423;28;92202;-75
2022/04/22 00:56:51;;;;;;;9.02;7.78;;;;;;;;;;5016503;28;93787;-74
2022/04/22 00:59:18;;;;;;;11.52;7.53;;;;;;;;;;5019193;28;93055;-74
2022/04/22 01:01:44;;;;;;;9.40;8.43;;;;;;;;;;5016530;28;92935;-75
2022/04/22 01:09:47;;;;;;;12.35;7.35;;;;;;;;;;5010059;28;94557;-75
2022/04/22 01:12:14;;;;;;;17.83;7.88;;;;;;;;;;4974781;28;95521;-76
2022/04/22 01:14:41;;;;;;;9.02;8.02;;;;;;;;;;4976694;28;92386;-75
2022/04/22 01:17:08;;;;;;;9.43;7.55;;;;;;;;;;4976718;28;92627;-75
2022/04/22 01:19:35;;;;;;;9.63;7.93;;;;;;;;;;4976402;28;93593;-74
2022/04/22 01:22:02;;;;;;;8.30;7.50;;;;;;;;;;4982839;28;92372;-75
2022/04/22 01:24:29;;;;;;;8.70;7.80;;;;;;;;;;4979201;28;93756;-74
2022/04/22 01:26:55;;;;;;;10.60;8.32;;;;;;;;;;4978516;28;92385;-75
2022/04/22 01:29:22;;;;;;;11.07;8.07;;;;;;;;;;4980144;28;93745;-75
2022/04/22 01:31:48;;;;;;;12.15;7.60;;;;;;;;;;4979558;28;93349;-75
2022/04/22 01:34:15;;;;;;;8.70;7.57;;;;;;;;;;4979794;28;92287;-75
2022/04/22 01:36:41;;;;;;;15.02;7.70;;;;;;;;;;4983865;28;94570;-75
2022/04/22 01:39:08;;;;;;;12.75;8.13;;;;;;;;;;4979893;28;93557;-74
2022/04/22 01:41:34;;;;;;;8.20;7.38;;;;;;;;;;4979494;28;92224;-74
2022/04/22 01:44:01;;;;;;;10.35;7.65;;;;;;;;;;4982337;28;93960;-74
2022/04/22 01:46:27;;;;;;;8.98;7.88;;;;;;;;;;4979528;28;92378;-75
2022/04/22 01:48:53;;;;;;;10.23;8.35;;;;;;;;;;4979351;28;93195;-75
2022/04/22 01:51:20;;;;;;;12.75;8.38;;;;;;;;;;4979089;28;94121;-76
2022/04/22 01:53:46;;;;;;;9.82;7.47;;;;;;;;;;4979209;28;91660;-74
2022/04/22 01:56:12;;;;;;;12.13;7.70;;;;;;;;;;4976445;28;92686;-75
2022/04/22 01:58:38;;;;;;;8.48;7.55;;;;;;;;;;4979008;28;94007;-75
2022/04/22 02:01:05;;;;;;;10.80;7.78;;;;;;;;;;4977522;28;94717;-74
2022/04/22 02:03:31;;;;;;;9.70;7.28;;;;;;;;;;4979086;28;95100;-74
2022/04/22 02:05:58;;;;;;;7.93;6.88;;;;;;;;;;4981677;28;94272;-74
2022/04/22 02:08:24;;;;;;;8.38;7.57;;;;;;;;;;4978816;28;93686;-75
2022/04/22 02:10:50;;;;;;;13.18;8.32;;;;;;;;;;4978548;28;93665;-74
2022/04/22 02:13:17;;;;;;;11.23;7.95;;;;;;;;;;4961791;28;92243;-74
2022/04/22 02:15:43;;;;;;;8.52;7.40;;;;;;;;;;4978920;28;93394;-76
2022/04/22 02:18:10;;;;;;;8.43;7.57;;;;;;;;;;4979479;28;92376;-75
2022/04/22 02:20:36;;;;;;;9.07;7.38;;;;;;;;;;4978264;28;92285;-75
2022/04/22 02:23:02;;;;;;;8.13;7.32;;;;;;;;;;4979055;28;93225;-74
2022/04/22 02:25:29;;;;;;;9.02;7.78;;;;;;;;;;4976897;28;96109;-74
2022/04/22 02:30:40;;;;;;;9.43;7.72;;;;;;;;;;4978591;28;93569;-75
2022/04/22 02:33:07;;;;;;;12.30;7.55;;;;;;;;;;4977392;28;92319;-75
2022/04/22 02:35:33;;;;;;;13.27;7.95;;;;;;;;;;4978586;28;93385;-75
2022/04/22 02:37:59;;;;;;;10.10;7.88;;;;;;;;;;4978286;28;94598;-75
2022/04/22 02:45:55;;;;;;;10.40;8.15;;;;;;;;;;4978149;28;93484;-75
2022/04/22 02:48:22;;;;;;;9.73;7.90;;;;;;;;;;4978692;28;92375;-75
2022/04/22 02:50:48;;;;;;;10.80;7.78;;;;;;;;;;4979822;28;94593;-75
2022/04/22 02:53:15;;;;;;;11.55;8.00;;;;;;;;;;4978247;28;92286;-75
2022/04/22 02:55:49;;;;;;;9.85;8.20;;;;;;;;;;4977771;28;94428;-75
2022/04/22 02:58:16;;;;;;;12.98;9.00;;;;;;;;;;4977717;28;93652;-76
2022/04/22 03:00:42;;;;;;;14.88;8.23;;;;;;;;;;4978217;28;92233;-76
2022/04/22 03:03:09;;;;;;;10.25;9.02;;;;;;;;;;4976954;28;94619;-74
2022/04/22 03:05:35;;;;;;;12.93;8.68;;;;;;;;;;4977622;28;94701;-74
2022/04/22 03:08:01;;;;;;;10.50;8.48;;;;;;;;;;4978853;28;91662;-74
2022/04/22 03:10:29;;;;;;;11.13;8.73;;;;;;;;;;4981210;28;92939;-74
2022/04/22 03:12:56;;;;;;;12.88;8.90;;;;;;;;;;4977638;28;92304;-73
2022/04/22 03:15:22;;;;;;;10.85;8.75;;;;;;;;;;4976637;28;95685;-74
2022/04/22 03:17:49;;;;;;;9.57;8.57;;;;;;;;;;4975300;28;93776;-75
2022/04/22 03:20:15;;;;;;;12.43;8.82;;;;;;;;;;4975676;28;93216;-75
2022/04/22 03:22:41;;;;;;;15.65;9.80;;;;;;;;;;4977592;28;93088;-75
2022/04/22 03:25:08;;;;;;;12.48;9.32;;;;;;;;;;4975253;28;93600;-74
2022/04/22 03:27:34;;;;;;;11.60;9.07;;;;;;;;;;4976304;28;92384;-74
2022/04/22 03:30:02;;;;;;;11.48;9.63;;;;;;;;;;4977911;28;93406;-75
2022/04/22 03:32:29;;;;;;;11.70;9.40;;;;;;;;;;4980205;28;93041;-73
2022/04/22 03:34:55;;;;;;;10.52;9.43;;;;;;;;;;4977361;28;92727;-73
2022/04/22 03:37:21;;;;;;;12.57;9.88;;;;;;;;;;4977835;28;93504;-73
2022/04/22 03:39:48;;;;;;;12.00;9.98;;;;;;;;;;4976390;28;94774;-75
2022/04/22 03:42:14;;;;;;;11.35;10.15;;;;;;;;;;4976751;28;96226;-74
2022/04/22 03:44:40;;;;;;;12.50;9.50;;;;;;;;;;4975765;28;93598;-75
2022/04/22 03:47:07;;;;;;;12.77;10.55;;;;;;;;;;4981509;28;92391;-75
2022/04/22 03:49:34;;;;;;;11.38;10.30;;;;;;;;;;4980195;28;93541;-75
2022/04/22 03:52:00;;;;;;;15.27;10.93;;;;;;;;;;4976737;28;93087;-75
2022/04/22 03:54:27;;;;;;;11.55;10.45;;;;;;;;;;4979677;28;92231;-75
2022/04/22 03:59:38;;;;;;;12.05;10.73;;;;;;;;;;4975666;28;92800;-74
2022/04/22 04:02:04;;;;;;;11.85;10.52;;;;;;;;;;4976561;28;93441;-75
2022/04/22 04:04:31;;;;;;;13.27;10.63;;;;;;;;;;4974760;28;96864;-75
2022/04/22 04:06:58;;;;;;;12.00;10.80;;;;;;;;;;4973781;28;93174;-74
2022/04/22 04:17:39;;;;;;;14.93;11.82;;;;;;;;;;4979433;28;93979;-74
2022/04/22 04:25:40;;;;;;;14.63;10.90;;;;;;;;;;4976266;28;93175;-75
2022/04/22 04:28:09;;;;;;;12.95;11.55;;;;;;;;;;4976303;28;92146;-75
2022/04/22 04:30:40;;;;;;;14.85;12.07;;;;;;;;;;4974449;28;94682;-75
2022/04/22 04:33:07;;;;;;;14.85;11.43;;;;;;;;;;4975594;28;93552;-75
2022/04/22 04:35:35;;;;;;;15.80;11.68;;;;;;;;;;4974372;28;92361;-75
2022/04/22 04:38:02;;;;;;;13.15;11.55;;;;;;;;;;4976515;28;93716;-74
2022/04/22 04:40:29;;;;;;;15.77;11.82;;;;;;;;;;4979125;28;93368;-74
2022/04/22 04:42:55;;;;;;;15.07;11.57;;;;;;;;;;4976112;28;93459;-75
2022/04/22 04:45:21;;;;;;;14.40;11.30;;;;;;;;;;4976026;28;93592;-74
2022/04/22 04:47:48;;;;;;;12.52;11.23;;;;;;;;;;4976489;28;91544;-75
2022/04/22 04:50:14;;;;;;;15.23;12.38;;;;;;;;;;4974221;28;93450;-75
2022/04/22 04:52:41;;;;;;;12.57;11.02;;;;;;;;;;4976017;28;93115;-75
2022/04/22 04:55:08;;;;;;;12.55;11.25;;;;;;;;;;4975052;28;96376;-75
2022/04/22 04:57:35;;;;;;;12.80;11.07;;;;;;;;;;4979185;28;95413;-74
2022/04/22 05:00:05;;;;;;;13.20;11.38;;;;;;;;;;4979262;28;93751;-75
2022/04/22 05:02:35;;;;;;;16.23;11.48;;;;;;;;;;4981942;28;92450;-76
2022/04/22 05:05:03;;;;;;;17.80;12.23;;;;;;;;;;4979054;28;92664;-75
2022/04/22 05:07:29;;;;;;;19.67;12.07;;;;;;;;;;4979383;28;92190;-75
2022/04/22 05:09:56;;;;;;;13.55;10.88;;;;;;;;;;4979299;28;93617;-75
2022/04/22 05:12:22;;;;;;;20.02;11.52;;;;;;;;;;4979465;28;92787;-75
2022/04/22 05:14:49;;;;;;;13.13;11.73;;;;;;;;;;4979085;28;92345;-75
2022/04/22 05:17:15;;;;;;;13.73;11.27;;;;;;;;;;4978790;28;93800;-75
2022/04/22 05:19:41;;;;;;;13.02;11.63;;;;;;;;;;4977222;28;96042;-75
2022/04/22 05:22:08;;;;;;;12.98;11.52;;;;;;;;;;4982016;28;92283;-73
2022/04/22 05:24:37;;;;;;;13.63;11.02;;;;;;;;;;4979036;28;93585;-74
2022/04/22 05:27:04;;;;;;;14.10;11.38;;;;;;;;;;4994280;28;92340;-73
2022/04/22 05:35:00;;;;;;;16.02;11.93;;;;;;;;;;4978677;28;92367;-73
2022/04/22 05:37:40;;;;;;;14.10;11.00;;;;;;;;;;4979016;28;95432;-74
2022/04/22 05:40:08;;;;;;;13.48;10.90;;;;;;;;;;4978225;28;93464;-74
2022/04/22 05:42:37;;;;;;;12.25;11.05;;;;;;;;;;4958354;28;92348;-74
2022/04/22 05:45:06;;;;;;;16.88;11.80;;;;;;;;;;4980146;28;94923;-74
2022/04/22 05:47:32;;;;;;;14.55;11.40;;;;;;;;;;4978573;28;92318;-74
2022/04/22 05:49:59;;;;;;;18.10;12.50;;;;;;;;;;4978522;28;93326;-73
2022/04/22 05:52:25;;;;;;;14.07;11.93;;;;;;;;;;4978309;28;93250;-75
2022/04/22 05:54:53;;;;;;;15.30;11.38;;;;;;;;;;4977640;28;92359;-75
2022/04/22 05:57:20;;;;;;;16.75;12.63;;;;;;;;;;4978499;28;93561;-73
2022/04/22 05:59:48;;;;;;;15.40;12.50;;;;;;;;;;4980207;28;92658;-74
2022/04/22 06:02:14;;;;;;;15.48;12.50;;;;;;;;;;4978978;28;91441;-74
2022/04/22 06:04:40;;;;;;;15.63;13.07;;;;;;;;;;4978203;28;92897;-74
2022/04/22 06:07:07;;;;;;;18.33;13.05;;;;;;;;;;4980018;28;94529;-74
2022/04/22 06:12:19;;;;;;;15.93;12.70;;;;;;;;;;4977976;28;93088;-75
2022/04/22 06:14:46;;;;;;;20.88;13.20;;;;;;;;;;4960624;28;92528;-74
2022/04/22 06:17:13;;;;;;;23.48;13.60;;;;;;;;;;4978098;28;93828;-75
2022/04/22 06:19:39;;;;;;;19.27;13.70;;;;;;;;;;4977886;28;93585;-74
2022/04/22 06:22:06;;;;;;;21.88;13.98;;;;;;;;;;4977730;28;92405;-75
2022/04/22 06:24:32;;;;;;;21.92;14.65;;;;;;;;;;4977819;28;94701;-73
2022/04/22 06:26:59;;;;;;;17.80;14.05;;;;;;;;;;4977225;28;93347;-75
2022/04/22 06:29:26;;;;;;;24.13;14.50;;;;;;;;;;4996810;28;92338;-72
2022/04/22 06:31:53;;;;;;;17.30;14.05;;;;;;;;;;4977666;28;93415;-75
2022/04/22 06:34:20;;;;;;;101.30;19.83;;;;;;;;;;4975968;28;94715;-74
2022/04/22 06:36:47;;;;;;;29.10;14.40;;;;;;;;;;4977528;28;95876;-75
2022/04/22 06:39:14;;;;;;;27.13;14.02;;;;;;;;;;4977765;28;93572;-74
2022/04/22 06:47:14;;;;;;;15.82;13.55;;;;;;;;;;4977318;28;93620;-74
2022/04/22 06:49:42;;;;;;;18.75;14.32;;;;;;;;;;4977576;28;92200;-74
2022/04/22 06:52:09;;;;;;;20.23;14.27;;;;;;;;;;4980953;28;93273;-73
2022/04/22 06:54:36;;;;;;;20.52;15.35;;;;;;;;;;4957170;28;92428;-73
2022/04/22 06:57:03;;;;;;;18.13;14.45;;;;;;;;;;4992891;28;93305;-72
2022/04/22 06:59:31;;;;;;;21.75;14.88;;;;;;;;;;4972180;28;96072;-73
2022/04/22 07:01:58;;;;;;;18.92;14.68;;;;;;;;;;4977051;28;92375;-74
2022/04/22 07:04:24;;;;;;;20.50;13.40;;;;;;;;;;4977255;28;94274;-74
2022/04/22 07:06:51;;;;;;;16.08;12.52;;;;;;;;;;4976956;28;94462;-72
2022/04/22 07:09:18;;;;;;;17.05;13.68;;;;;;;;;;4977085;28;92251;-73
2022/04/22 07:11:44;;;;;;;18.85;13.93;;;;;;;;;;4979982;28;93350;-76
2022/04/22 07:14:11;;;;;;;16.60;13.57;;;;;;;;;;4959625;28;92413;-73
2022/04/22 07:16:42;;;;;;;18.33;13.63;;;;;;;;;;4977557;28;93819;-73
2022/04/22 07:19:08;;;;;;;21.67;13.07;;;;;;;;;;4959491;28;94532;-71
2022/04/22 07:21:35;;;;;;;15.85;13.05;;;;;;;;;;4961001;28;92216;-73
2022/04/22 07:24:01;;;;;;;18.60;13.02;;;;;;;;;;4975813;28;94798;-72
2022/04/22 07:26:30;;;;;;;17.77;12.88;;;;;;;;;;4976451;28;93596;-72
2022/04/22 07:28:58;;;;;;;16.17;13.05;;;;;;;;;;4977156;28;92290;-73
2022/04/22 07:31:28;;;;;;;17.25;11.80;;;;;;;;;;4974242;28;93507;-74
2022/04/22 07:33:54;;;;;;;16.25;12.52;;;;;;;;;;4979866;28;93413;-73
2022/04/22 07:36:21;;;;;;;16.50;11.23;;;;;;;;;;4976804;28;93483;-73
2022/04/22 07:38:47;;;;;;;17.02;12.77;;;;;;;;;;4976569;28;92226;-74
2022/04/22 07:41:17;;;;;;;16.05;11.63;;;;;;;;;;4976943;28;91603;-74
2022/04/22 07:46:47;;;;;;;19.95;11.82;;;;;;;;;;5000010;28;92700;-75
2022/04/22 07:49:14;;;;;;;15.88;12.40;;;;;;;;;;5004611;28;94822;-74
2022/04/22 07:51:41;;;;;;;17.45;12.23;;;;;;;;;;5005414;28;95449;-74
2022/04/22 07:54:12;;;;;;;16.60;11.35;;;;;;;;;;5005551;28;93849;-75
2022/04/22 07:56:41;;;;;;;12.82;11.05;;;;;;;;;;5008307;28;92374;-74
2022/04/22 07:59:08;;;;;;;14.85;10.82;;;;;;;;;;5005744;28;93403;-76
2022/04/22 08:01:34;;;;;;;16.02;11.50;;;;;;;;;;5005898;28;92427;-75
2022/04/22 08:04:01;;;;;;;16.73;11.27;;;;;;;;;;5007781;28;93620;-74
2022/04/22 08:06:28;;;;;;;14.98;11.13;;;;;;;;;;4986319;28;93173;-75
2022/04/22 08:08:54;;;;;;;12.18;10.75;;;;;;;;;;5004181;28;92344;-73
2022/04/22 08:11:21;;;;;;;15.27;10.63;;;;;;;;;;5006351;28;92592;-75
2022/04/22 08:13:47;;;;;;;17.92;11.00;;;;;;;;;;5005092;28;95867;-74
2022/04/22 08:16:13;;;;;;;16.40;10.85;;;;;;;;;;5003295;28;92767;-74
2022/04/22 08:18:40;;;;;;;13.15;11.05;;;;;;;;;;5008078;28;92728;-74
2022/04/22 08:21:08;;;;;;;17.05;10.07;;;;;;;;;;5002348;28;92189;-77
2022/04/22 08:23:35;;;;;;;22.33;10.10;;;;;;;;;;4997505;28;93405;-75
2022/04/22 08:26:01;;;;;;;45.42;11.40;;;;;;;;;;5000621;28;93181;-75
2022/04/22 08:28:29;;;;;;;11.15;10.05;;;;;;;;;;5007092;28;92407;-74
2022/04/22 08:30:55;;;;;;;12.90;10.25;;;;;;;;;;5004013;28;93437;-75
2022/04/22 08:37:01;;;;;;;15.40;10.68;;;;;;;;;;4960638;28;92765;-77
2022/04/22 08:39:31;;;;;;;13.77;10.57;;;;;;;;;;4963604;28;94819;-78
2022/04/22 08:41:59;;;;;;;11.48;10.30;;;;;;;;;;4969051;28;93145;-77
2022/04/22 08:44:46;;;;;;;13.13;10.15;;;;;;;;;;4966170;28;93603;-75
2022/04/22 08:50:02;;;;;;;12.43;10.00;;;;;;;;;;4965203;28;92338;-76
2022/04/22 08:52:31;;;;;;;14.07;10.45;;;;;;;;;;4969196;28;93606;-74
2022/04/22 08:54:58;;;;;;;11.57;10.40;;;;;;;;;;4948550;28;93962;-76
2022/04/22 08:57:24;;;;;;;11.35;10.07;;;;;;;;;;4965814;28;91573;-75
2022/04/22 08:59:51;;;;;;;15.88;10.52;;;;;;;;;;4968674;28;93049;-75
2022/04/22 09:02:18;;;;;;;12.82;11.57;;;;;;;;;;4965707;28;93366;-78
2022/04/22 09:04:47;;;;;;;12.18;10.00;;;;;;;;;;4966242;28;94853;-75
2022/04/22 09:07:13;;;;;;;11.02;9.25;;;;;;;;;;4985059;28;93635;-72
2022/04/22 09:09:40;;;;;;;13.13;10.50;;;;;;;;;;5009088;28;92422;-80
2022/04/22 09:12:11;;;;;;;10.88;9.77;;;;;;;;;;5007923;28;94680;-74
2022/04/22 09:14:45;;;;;;;14.05;9.85;;;;;;;;;;5008993;28;94558;-76
2022/04/22 09:17:16;;;;;;;11.25;10.15;;;;;;;;;;5005123;28;92477;-77
2022/04/22 09:19:44;;;;;;;14.55;10.40;;;;;;;;;;5007871;28;92730;-80
2022/04/22 09:22:10;;;;;;;13.07;9.90;;;;;;;;;;5008355;28;93227;-75
2022/04/22 09:24:47;;;;;;;19.27;10.27;;;;;;;;;;5012043;28;92390;-77
2022/04/22 09:27:14;;;;;;;15.80;9.48;;;;;;;;;;4988844;28;94514;-78
2022/04/22 09:29:50;;;;;;;10.50;9.00;;;;;;;;;;5006537;28;94703;-75
2022/04/22 09:32:24;;;;;;;9.90;9.00;;;;;;;;;;5010177;28;96963;-76
2022/04/22 09:34:51;;;;;;;10.27;9.32;;;;;;;;;;5007059;28;93258;-77
2022/04/22 09:42:50;;;;;;;12.32;9.18;;;;;;;;;;5009609;28;94433;-76
2022/04/22 09:45:17;;;;;;;13.38;8.48;;;;;;;;;;5007306;28;92394;-78
2022/04/22 09:47:43;;;;;;;24.10;8.30;;;;;;;;;;5012509;28;93464;-76
2022/04/22 09:50:11;;;;;;;10.02;9.05;;;;;;;;;;5007534;28;92129;-77
2022/04/22 09:52:43;;;;;;;10.30;8.35;;;;;;;;;;5009896;28;93437;-76
2022/04/22 09:55:10;;;;;;;12.10;8.77;;;;;;;;;;5007251;28;96058;-80
2022/04/22 09:57:49;;;;;;;13.52;7.95;;;;;;;;;;5010252;28;92270;-75
2022/04/22 10:00:16;;;;;;;10.82;8.35;;;;;;;;;;5005289;28;92936;-73
2022/04/22 10:02:42;;;;;;;12.50;7.45;;;;;;;;;;5009571;28;93569;-76
2022/04/22 10:05:09;;;;;;;23.38;9.38;;;;;;;;;;5005871;28;92442;-72
2022/04/22 10:07:35;;;;;;;10.30;8.15;;;;;;;;;;5006766;28;92990;-73
2022/04/22 10:10:02;;;;;;;15.70;8.32;;;;;;;;;;5012106;28;93473;-74
2022/04/22 10:12:30;;;;;;;13.93;7.85;;;;;;;;;;5008133;28;93516;-73
2022/04/22 10:14:57;;;;;;;11.00;7.50;;;;;;;;;;4988265;28;93149;-75
2022/04/22 10:17:24;;;;;;;8.23;7.40;;;;;;;;;;5008586;28;92618;-75
2022/04/22 10:19:52;;;;;;;8.02;6.88;;;;;;;;;;5016493;28;94500;-77
2022/04/22 10:22:18;;;;;;;8.75;7.90;;;;;;;;;;5006548;28;93632;-75
2022/04/22 10:24:46;;;;;;;8.95;7.97;;;;;;;;;;5007403;28;92384;-74
2022/04/22 10:27:13;;;;;;;8.57;7.80;;;;;;;;;;5002501;28;93499;-74
2022/04/22 10:29:41;;;;;;;11.02;8.80;;;;;;;;;;5009126;28;93225;-74
2022/04/22 10:32:09;;;;;;;14.45;8.35;;;;;;;;;;5009865;28;92773;-76
2022/04/22 10:34:37;;;;;;;11.57;7.15;;;;;;;;;;5006533;28;93133;-75
2022/04/22 10:37:04;;;;;;;10.55;7.90;;;;;;;;;;5006643;28;91617;-71
2022/04/22 10:39:34;;;;;;;8.68;7.00;;;;;;;;;;4989501;28;93526;-71
2022/04/22 10:42:12;;;;;;;10.23;7.38;;;;;;;;;;5005614;28;93555;-71
2022/04/22 10:47:36;;;;;;;8.40;7.20;;;;;;;;;;4998729;28;96211;-74
2022/04/22 10:50:21;;;;;;;11.32;7.03;;;;;;;;;;5010010;28;93919;-74
2022/04/22 10:53:02;;;;;;;7.55;6.57;;;;;;;;;;5005600;28;92771;-75
2022/04/22 10:55:33;;;;;;;6.47;5.85;;;;;;;;;;5005440;28;93213;-74
2022/04/22 10:58:12;;;;;;;10.60;6.40;;;;;;;;;;5006147;28;92224;-74
2022/04/22 11:00:46;;;;;;;12.27;5.93;;;;;;;;;;5007678;28;92910;-74
2022/04/22 11:03:13;;;;;;;10.52;5.90;;;;;;;;;;5008302;28;92414;-73
2022/04/22 11:05:44;;;;;;;6.68;5.50;;;;;;;;;;5003782;28;93202;-74
2022/04/22 11:08:16;;;;;;;7.05;5.13;;;;;;;;;;5007610;28;93370;-74
2022/04/22 11:10:45;;;;;;;6.57;5.03;;;;;;;;;;5005511;28;95777;-76
2022/04/22 11:13:52;;;;;;;6.32;5.10;;;;;;;;;;5007464;28;92431;-73
2022/04/22 11:16:32;;;;;;;4.78;4.32;;;;;;;;;;4927254;28;94411;-75
2022/04/22 11:19:17;;;;;;;6.40;4.28;;;;;;;;;;4959216;28;95137;-74
2022/04/22 11:21:44;;;;;;;6.28;4.18;;;;;;;;;;4971276;28;93277;-73
2022/04/22 11:24:15;;;;;;;9.13;4.55;;;;;;;;;;4977609;28;93611;-74
2022/04/22 11:26:42;;;;;;;7.25;4.35;;;;;;;;;;4978009;28;92498;-75
2022/04/22 11:29:10;;;;;;;12.60;4.43;;;;;;;;;;4978566;28;93672;-73
2022/04/22 11:31:36;;;;;;;22.50;4.53;;;;;;;;;;4977714;28;92643;-74
2022/04/22 11:34:05;;;;;;;4.90;4.15;;;;;;;;;;4977807;28;92325;-73
2022/04/22 11:36:43;;;;;;;4.03;3.67;;;;;;;;;;4976067;28;94597;-73
2022/04/22 11:39:12;;;;;;;6.82;4.55;;;;;;;;;;4980693;28;92173;-74
2022/04/22 11:41:50;;;;;;;4.28;3.72;;;;;;;;;;4977688;28;93575;-75
2022/04/22 11:44:20;;;;;;;5.05;3.90;;;;;;;;;;4977530;28;93217;-73
2022/04/22 11:46:49;;;;;;;15.30;4.35;;;;;;;;;;4977758;28;92228;-72
2022/04/22 11:49:16;;;;;;;3.88;3.58;;;;;;;;;;4977225;28;93347;-73
2022/04/22 11:51:44;;;;;;;7.07;4.32;;;;;;;;;;4976131;28;94473;-74
2022/04/22 11:54:11;;;;;;;6.22;3.70;;;;;;;;;;4977884;28;91446;-73
2022/04/22 11:56:37;;;;;;;9.65;3.60;;;;;;;;;;4977623;28;92658;-73
2022/04/22 11:59:03;;;;;;;15.55;4.43;;;;;;;;;;4977226;28;94140;-73
2022/04/22 12:09:58;;;;;;;8.23;3.78;;;;;;;;;;4977230;28;93461;-73
2022/04/22 12:12:25;;;;;;;4.38;3.75;;;;;;;;;;4976701;28;93798;-73
2022/04/22 12:15:01;;;;;;;7.85;3.80;;;;;;;;;;4977380;28;92362;-73
2022/04/22 12:17:28;;;;;;;5.72;3.97;;;;;;;;;;4977406;28;93844;-74
2022/04/22 12:19:54;;;;;;;4.32;3.60;;;;;;;;;;4977718;28;92930;-73
2022/04/22 12:22:21;;;;;;;4.43;4.03;;;;;;;;;;4977082;28;92319;-73
2022/04/22 12:25:07;;;;;;;6.50;4.32;;;;;;;;;;4979859;28;93346;-73
2022/04/22 12:27:33;;;;;;;8.32;4.10;;;;;;;;;;4982606;28;94821;-76
2022/04/22 12:30:08;;;;;;;10.98;4.10;;;;;;;;;;4977287;28;96193;-75
2022/04/22 12:32:37;;;;;;;4.65;4.18;;;;;;;;;;4975814;28;94459;-76
2022/04/22 12:35:10;;;;;;;10.63;4.15;;;;;;;;;;4976871;28;92597;-76
2022/04/22 12:37:41;;;;;;;4.70;4.30;;;;;;;;;;4975719;28;94609;-75
2022/04/22 12:40:09;;;;;;;6.37;3.90;;;;;;;;;;4976841;28;93658;-76
2022/04/22 12:42:36;;;;;;;7.65;4.57;;;;;;;;;;4976821;28;92271;-76
2022/04/22 12:53:48;;;;;;;6.43;3.92;;;;;;;;;;4993935;28;95801;-76
2022/04/22 12:56:15;;;;;;;3.80;3.60;;;;;;;;;;5005935;28;92461;-74
2022/04/22 12:58:55;;;;;;;7.85;3.92;;;;;;;;;;5004244;28;93635;-76
2022/04/22 13:01:25;;;;;;;6.50;4.00;;;;;;;;;;5005878;28;93572;-75
2022/04/22 13:03:51;;;;;;;13.48;4.20;;;;;;;;;;5003295;28;92374;-75
2022/04/22 13:06:37;;;;;;;12.98;4.65;;;;;;;;;;5006158;28;93566;-75
2022/04/22 13:09:04;;;;;;;14.20;3.78;;;;;;;;;;5007114;28;93812;-75
2022/04/22 13:11:31;;;;;;;4.13;3.72;;;;;;;;;;5002031;28;92589;-76
2022/04/22 13:13:58;;;;;;;5.70;3.63;;;;;;;;;;5003266;28;93662;-78
2022/04/22 13:16:24;;;;;;;6.72;3.92;;;;;;;;;;5007129;28;92919;-76
2022/04/22 13:18:50;;;;;;;5.38;3.67;;;;;;;;;;5008275;28;94569;-76
2022/04/22 13:21:17;;;;;;;7.72;4.07;;;;;;;;;;5007278;28;93604;-76
2022/04/22 13:23:43;;;;;;;9.80;3.90;;;;;;;;;;5010878;28;92281;-75
2022/04/22 13:26:10;;;;;;;4.38;4.03;;;;;;;;;;5007419;28;93915;-76
2022/04/22 13:28:36;;;;;;;8.48;4.03;;;;;;;;;;5009906;28;93216;-76
2022/04/22 13:31:02;;;;;;;4.78;4.32;;;;;;;;;;5008313;28;92379;-75
2022/04/22 13:33:32;;;;;;;6.72;4.20;;;;;;;;;;5011197;28;93204;-76
2022/04/22 13:36:00;;;;;;;5.15;3.63;;;;;;;;;;5006925;28;91677;-75
2022/04/22 13:38:26;;;;;;;6.53;3.97;;;;;;;;;;5007975;28;92411;-75
2022/04/22 13:40:52;;;;;;;3.95;3.65;;;;;;;;;;5009452;28;94176;-77
2022/04/22 13:43:28;;;;;;;4.68;4.28;;;;;;;;;;5006379;28;95699;-76
2022/04/22 13:54:12;;;;;;;5.78;3.45;;;;;;;;;;5010581;28;93109;-77
2022/04/22 13:56:39;;;;;;;6.72;3.83;;;;;;;;;;5008716;28;92287;-76
2022/04/22 13:59:05;;;;;;;4.03;3.30;;;;;;;;;;5008936;28;93257;-75
2022/04/22 14:01:32;;;;;;;9.77;3.28;;;;;;;;;;5007634;28;94305;-75
2022/04/22 14:03:58;;;;;;;3.70;3.40;;;;;;;;;;5009606;28;92509;-76
2022/04/22 14:06:25;;;;;;;3.88;3.42;;;;;;;;;;5006920;28;93306;-75
2022/04/22 14:08:52;;;;;;;4.65;3.65;;;;;;;;;;5008292;28;95014;-75
2022/04/22 14:11:18;;;;;;;5.15;3.63;;;;;;;;;;5001265;28;93374;-75
2022/04/22 14:13:45;;;;;;;6.38;3.35;;;;;;;;;;5003852;28;93594;-74
2022/04/22 14:16:12;;;;;;;4.18;3.88;;;;;;;;;;5011049;28;93587;-74
2022/04/22 14:18:39;;;;;;;4.80;3.90;;;;;;;;;;5008970;28;92811;-80
2022/04/22 14:21:07;;;;;;;6.60;3.03;;;;;;;;;;4984987;28;94955;-79
2022/04/22 14:23:34;;;;;;;10.10;4.10;;;;;;;;;;4984255;28;92833;-81
2022/04/22 14:26:08;;;;;;;10.27;3.90;;;;;;;;;;5008885;28;95893;-76
2022/04/22 14:28:34;;;;;;;7.15;3.85;;;;;;;;;;5005534;28;94039;-75
2022/04/22 14:31:01;;;;;;;5.57;3.58;;;;;;;;;;5001828;28;92370;-75
2022/04/22 14:33:27;;;;;;;4.53;3.50;;;;;;;;;;5002686;28;94701;-73
2022/04/22 14:35:54;;;;;;;6.13;4.15;;;;;;;;;;5008260;28;93589;-73
2022/04/22 14:38:22;;;;;;;8.13;4.60;;;;;;;;;;5011049;28;92195;-74
2022/04/22 14:40:48;;;;;;;5.15;3.63;;;;;;;;;;5008158;28;93626;-74
2022/04/22 14:43:15;;;;;;;3.83;3.45;;;;;;;;;;4980903;28;93666;-74
2022/04/22 14:45:41;;;;;;;5.03;4.50;;;;;;;;;;5009365;28;92414;-73
2022/04/22 14:48:07;;;;;;;4.88;4.43;;;;;;;;;;5006008;28;93854;-74
2022/04/22 14:50:36;;;;;;;6.40;4.40;;;;;;;;;;5009785;28;91691;-75
2022/04/22 14:53:03;;;;;;;4.15;3.83;;;;;;;;;;5006275;28;93855;-74
2022/04/22 14:55:29;;;;;;;4.53;4.15;;;;;;;;;;5004549;28;93716;-74
2022/04/22 14:57:55;;;;;;;8.50;4.28;;;;;;;;;;4965832;28;94807;-76
2022/04/22 15:00:22;;;;;;;10.43;4.10;;;;;;;;;;5009984;28;95180;-76
2022/04/22 15:02:48;;;;;;;6.22;4.63;;;;;;;;;;5004786;28;92306;-74
2022/04/22 15:05:15;;;;;;;11.27;4.57;;;;;;;;;;5008803;28;94477;-74
2022/04/22 15:07:42;;;;;;;5.68;4.55;;;;;;;;;;5005643;28;94699;-76
2022/04/22 15:10:08;;;;;;;10.48;4.50;;;;;;;;;;5005590;28;92404;-75
2022/04/22 15:12:34;;;;;;;9.15;4.40;;;;;;;;;;4984582;28;97879;-75
2022/04/22 15:15:03;;;;;;;6.63;4.18;;;;;;;;;;5005707;28;95760;-74
2022/04/22 15:25:59;;;;;;;10.88;7.57;;;;;;;;;;5002979;28;95827;-76
2022/04/22 15:28:26;;;;;;;13.52;7.75;;;;;;;;;;5008125;28;94510;-73
2022/04/22 15:31:08;;;;;;;12.32;10.00;;;;;;;;;;5001081;28;92356;-76
2022/04/22 15:33:38;;;;;;;9.88;8.15;;;;;;;;;;5003134;28;94343;-76
2022/04/22 15:36:06;;;;;;;8.48;6.47;;;;;;;;;;5007742;28;94069;-74
2022/04/22 15:38:33;;;;;;;13.88;6.07;;;;;;;;;;4987634;28;93736;-74
2022/04/22 15:40:59;;;;;;;6.10;5.32;;;;;;;;;;5004733;28;92963;-76
2022/04/22 15:43:36;;;;;;;10.23;5.70;;;;;;;;;;5002189;28;93442;-74
2022/04/22 15:46:03;;;;;;;6.82;6.00;;;;;;;;;;5009695;28;92496;-74
2022/04/22 15:48:30;;;;;;;6.13;5.47;;;;;;;;;;5003264;28;96003;-76
2022/04/22 15:50:56;;;;;;;7.00;5.60;;;;;;;;;;5008093;28;92337;-76
2022/04/22 15:53:23;;;;;;;13.88;6.07;;;;;;;;;;5007399;28;93029;-77
2022/04/22 15:55:49;;;;;;;7.85;5.97;;;;;;;;;;5005729;28;94013;-77
2022/04/22 15:58:17;;;;;;;9.48;5.70;;;;;;;;;;5006333;28;92574;-75
2022/04/22 16:00:49;;;;;;;7.93;5.70;;;;;;;;;;5003219;28;92395;-76
2022/04/22 16:03:19;;;;;;;11.13;5.72;;;;;;;;;;5002687;28;95269;-77
2022/04/22 16:05:47;;;;;;;10.88;5.78;;;;;;;;;;4984694;28;92127;-77
2022/04/22 16:08:13;;;;;;;7.30;6.00;;;;;;;;;;4966761;28;94222;-76
2022/04/22 16:10:40;;;;;;;7.40;6.10;;;;;;;;;;4979491;28;92410;-76